sensor_id;sensor_type;location;lat;lon;timestamp;temperature;humidity
36690;DHT22;22676;51.120;3.702;2024-03-25T00:00:44;22.60;46.70
36690;DHT22;22676;51.120;3.702;2024-03-25T00:03:09;22.50;46.70
36690;DHT22;22676;51.120;3.702;2024-03-25T00:05:35;22.50;46.90
36690;DHT22;22676;51.120;3.702;2024-03-25T00:08:00;22.40;47.00
36690;DHT22;22676;51.120;3.702;2024-03-25T00:10:26;22.30;47.10
36690;DHT22;22676;51.120;3.702;2024-03-25T00:12:52;22.30;47.20
36690;DHT22;22676;51.120;3.702;2024-03-25T00:15:22;22.20;47.70
36690;DHT22;22676;51.120;3.702;2024-03-25T00:17:49;22.20;47.90
36690;DHT22;22676;51.120;3.702;2024-03-25T00:20:14;22.20;47.70
36690;DHT22;22676;51.120;3.702;2024-03-25T00:22:40;22.10;47.70
36690;DHT22;22676;51.120;3.702;2024-03-25T00:25:06;22.10;47.70
36690;DHT22;22676;51.120;3.702;2024-03-25T00:27:31;22.00;47.70
36690;DHT22;22676;51.120;3.702;2024-03-25T00:29:57;22.00;47.70
36690;DHT22;22676;51.120;3.702;2024-03-25T00:32:23;22.00;47.70
36690;DHT22;22676;51.120;3.702;2024-03-25T00:34:49;21.90;47.70
36690;DHT22;22676;51.120;3.702;2024-03-25T00:37:14;21.90;48.00
36690;DHT22;22676;51.120;3.702;2024-03-25T00:39:40;21.90;47.90
36690;DHT22;22676;51.120;3.702;2024-03-25T00:42:05;21.80;47.90
36690;DHT22;22676;51.120;3.702;2024-03-25T00:44:31;21.80;47.80
36690;DHT22;22676;51.120;3.702;2024-03-25T00:46:56;21.80;47.80
36690;DHT22;22676;51.120;3.702;2024-03-25T00:49:22;21.80;46.90
36690;DHT22;22676;51.120;3.702;2024-03-25T00:51:48;21.80;46.60
36690;DHT22;22676;51.120;3.702;2024-03-25T00:54:13;21.70;46.50
36690;DHT22;22676;51.120;3.702;2024-03-25T00:56:39;21.70;46.90
36690;DHT22;22676;51.120;3.702;2024-03-25T00:59:04;21.70;47.20
36690;DHT22;22676;51.120;3.702;2024-03-25T01:01:31;21.70;47.30
36690;DHT22;22676;51.120;3.702;2024-03-25T01:03:57;21.60;47.50
36690;DHT22;22676;51.120;3.702;2024-03-25T01:06:23;21.70;47.50
36690;DHT22;22676;51.120;3.702;2024-03-25T01:08:49;21.60;47.50
36690;DHT22;22676;51.120;3.702;2024-03-25T01:11:14;21.60;47.70
36690;DHT22;22676;51.120;3.702;2024-03-25T01:13:40;21.60;47.80
36690;DHT22;22676;51.120;3.702;2024-03-25T01:16:07;21.60;47.80
36690;DHT22;22676;51.120;3.702;2024-03-25T01:18:32;21.60;48.40
36690;DHT22;22676;51.120;3.702;2024-03-25T01:20:58;21.50;47.90
36690;DHT22;22676;51.120;3.702;2024-03-25T01:23:24;21.50;47.90
36690;DHT22;22676;51.120;3.702;2024-03-25T01:25:49;21.50;47.80
36690;DHT22;22676;51.120;3.702;2024-03-25T01:28:15;21.50;47.90
36690;DHT22;22676;51.120;3.702;2024-03-25T01:30:41;21.50;47.80
36690;DHT22;22676;51.120;3.702;2024-03-25T01:33:06;21.40;48.40
36690;DHT22;22676;51.120;3.702;2024-03-25T01:35:32;21.40;47.80
36690;DHT22;22676;51.120;3.702;2024-03-25T01:37:57;21.40;47.80
36690;DHT22;22676;51.120;3.702;2024-03-25T01:40:23;21.40;47.90
36690;DHT22;22676;51.120;3.702;2024-03-25T01:42:56;21.40;47.80
36690;DHT22;22676;51.120;3.702;2024-03-25T01:45:21;21.40;47.80
36690;DHT22;22676;51.120;3.702;2024-03-25T01:47:47;21.40;47.70
36690;DHT22;22676;51.120;3.702;2024-03-25T01:50:12;21.40;46.90
36690;DHT22;22676;51.120;3.702;2024-03-25T01:52:38;21.40;46.80
36690;DHT22;22676;51.120;3.702;2024-03-25T01:55:04;21.30;46.90
36690;DHT22;22676;51.120;3.702;2024-03-25T01:57:31;21.30;47.20
36690;DHT22;22676;51.120;3.702;2024-03-25T01:59:57;21.30;47.20
36690;DHT22;22676;51.120;3.702;2024-03-25T02:02:22;21.30;47.20
36690;DHT22;22676;51.120;3.702;2024-03-25T02:04:48;21.30;47.30
36690;DHT22;22676;51.120;3.702;2024-03-25T02:07:14;21.30;47.30
36690;DHT22;22676;51.120;3.702;2024-03-25T02:09:39;21.30;47.40
36690;DHT22;22676;51.120;3.702;2024-03-25T02:12:05;21.30;47.30
36690;DHT22;22676;51.120;3.702;2024-03-25T02:14:31;21.30;47.50
36690;DHT22;22676;51.120;3.702;2024-03-25T02:16:56;21.30;47.60
36690;DHT22;22676;51.120;3.702;2024-03-25T02:19:22;21.30;47.60
36690;DHT22;22676;51.120;3.702;2024-03-25T02:21:48;21.30;47.50
36690;DHT22;22676;51.120;3.702;2024-03-25T02:24:14;21.20;47.50
36690;DHT22;22676;51.120;3.702;2024-03-25T02:26:40;21.20;47.70
36690;DHT22;22676;51.120;3.702;2024-03-25T02:29:08;21.20;47.70
36690;DHT22;22676;51.120;3.702;2024-03-25T02:31:34;21.20;47.80
36690;DHT22;22676;51.120;3.702;2024-03-25T02:33:59;21.20;48.00
36690;DHT22;22676;51.120;3.702;2024-03-25T02:36:25;21.10;47.90
36690;DHT22;22676;51.120;3.702;2024-03-25T02:38:50;21.10;48.00
36690;DHT22;22676;51.120;3.702;2024-03-25T02:41:16;21.10;48.00
36690;DHT22;22676;51.120;3.702;2024-03-25T02:43:42;21.10;48.60
36690;DHT22;22676;51.120;3.702;2024-03-25T02:46:07;21.10;48.00
36690;DHT22;22676;51.120;3.702;2024-03-25T02:48:33;21.10;47.30
36690;DHT22;22676;51.120;3.702;2024-03-25T02:50:58;21.10;46.90
36690;DHT22;22676;51.120;3.702;2024-03-25T02:53:24;21.10;46.60
36690;DHT22;22676;51.120;3.702;2024-03-25T02:55:49;21.00;47.10
36690;DHT22;22676;51.120;3.702;2024-03-25T02:58:15;21.00;47.20
36690;DHT22;22676;51.120;3.702;2024-03-25T03:00:40;21.00;47.20
36690;DHT22;22676;51.120;3.702;2024-03-25T03:03:06;21.00;47.40
36690;DHT22;22676;51.120;3.702;2024-03-25T03:05:31;21.00;47.50
36690;DHT22;22676;51.120;3.702;2024-03-25T03:07:58;21.00;47.60
36690;DHT22;22676;51.120;3.702;2024-03-25T03:10:23;21.00;47.60
36690;DHT22;22676;51.120;3.702;2024-03-25T03:12:49;21.00;47.70
36690;DHT22;22676;51.120;3.702;2024-03-25T03:15:15;21.00;47.90
36690;DHT22;22676;51.120;3.702;2024-03-25T03:17:40;21.00;47.90
36690;DHT22;22676;51.120;3.702;2024-03-25T03:20:06;21.00;47.80
36690;DHT22;22676;51.120;3.702;2024-03-25T03:22:31;21.00;47.80
36690;DHT22;22676;51.120;3.702;2024-03-25T03:24:57;21.00;47.80
36690;DHT22;22676;51.120;3.702;2024-03-25T03:27:23;20.90;47.80
36690;DHT22;22676;51.120;3.702;2024-03-25T03:29:49;20.90;47.70
36690;DHT22;22676;51.120;3.702;2024-03-25T03:32:14;20.90;47.80
36690;DHT22;22676;51.120;3.702;2024-03-25T03:34:40;20.90;47.90
36690;DHT22;22676;51.120;3.702;2024-03-25T03:37:05;20.90;47.80
36690;DHT22;22676;51.120;3.702;2024-03-25T03:39:31;20.90;47.80
36690;DHT22;22676;51.120;3.702;2024-03-25T03:41:56;20.90;48.00
36690;DHT22;22676;51.120;3.702;2024-03-25T03:44:22;20.90;48.00
36690;DHT22;22676;51.120;3.702;2024-03-25T03:46:48;20.80;47.90
36690;DHT22;22676;51.120;3.702;2024-03-25T03:49:13;20.90;47.10
36690;DHT22;22676;51.120;3.702;2024-03-25T03:51:39;20.80;46.80
36690;DHT22;22676;51.120;3.702;2024-03-25T03:54:04;20.80;46.70
36690;DHT22;22676;51.120;3.702;2024-03-25T03:56:30;20.80;46.90
36690;DHT22;22676;51.120;3.702;2024-03-25T03:58:55;20.80;47.20
36690;DHT22;22676;51.120;3.702;2024-03-25T04:01:21;20.80;47.50
36690;DHT22;22676;51.120;3.702;2024-03-25T04:03:46;20.80;47.40
36690;DHT22;22676;51.120;3.702;2024-03-25T04:06:12;20.80;47.30
36690;DHT22;22676;51.120;3.702;2024-03-25T04:08:38;20.80;47.30
36690;DHT22;22676;51.120;3.702;2024-03-25T04:11:04;20.80;47.30
36690;DHT22;22676;51.120;3.702;2024-03-25T04:13:31;20.80;47.40
36690;DHT22;22676;51.120;3.702;2024-03-25T04:16:00;20.80;47.30
36690;DHT22;22676;51.120;3.702;2024-03-25T04:18:26;20.80;47.40
36690;DHT22;22676;51.120;3.702;2024-03-25T04:20:53;20.80;47.40
36690;DHT22;22676;51.120;3.702;2024-03-25T04:23:19;20.80;47.50
36690;DHT22;22676;51.120;3.702;2024-03-25T04:25:44;20.70;47.50
36690;DHT22;22676;51.120;3.702;2024-03-25T04:28:10;20.70;47.40
36690;DHT22;22676;51.120;3.702;2024-03-25T04:30:35;20.70;47.50
36690;DHT22;22676;51.120;3.702;2024-03-25T04:33:01;20.70;47.40
36690;DHT22;22676;51.120;3.702;2024-03-25T04:35:27;20.70;47.40
36690;DHT22;22676;51.120;3.702;2024-03-25T04:37:53;20.80;47.50
36690;DHT22;22676;51.120;3.702;2024-03-25T04:40:18;20.70;47.40
36690;DHT22;22676;51.120;3.702;2024-03-25T04:42:44;20.80;47.40
36690;DHT22;22676;51.120;3.702;2024-03-25T04:45:10;20.70;47.60
36690;DHT22;22676;51.120;3.702;2024-03-25T04:47:35;20.70;47.70
36690;DHT22;22676;51.120;3.702;2024-03-25T04:50:01;20.70;46.80
36690;DHT22;22676;51.120;3.702;2024-03-25T04:52:28;20.60;46.40
36690;DHT22;22676;51.120;3.702;2024-03-25T04:54:53;20.60;46.60
36690;DHT22;22676;51.120;3.702;2024-03-25T04:57:19;20.60;46.70
36690;DHT22;22676;51.120;3.702;2024-03-25T04:59:44;20.60;47.20
36690;DHT22;22676;51.120;3.702;2024-03-25T05:02:10;20.60;47.40
36690;DHT22;22676;51.120;3.702;2024-03-25T05:04:35;20.70;47.40
36690;DHT22;22676;51.120;3.702;2024-03-25T05:07:00;20.80;46.60
36690;DHT22;22676;51.120;3.702;2024-03-25T05:09:26;20.90;46.40
36690;DHT22;22676;51.120;3.702;2024-03-25T05:11:52;21.00;46.80
36690;DHT22;22676;51.120;3.702;2024-03-25T05:14:17;21.00;45.90
36690;DHT22;22676;51.120;3.702;2024-03-25T05:16:43;21.10;45.90
36690;DHT22;22676;51.120;3.702;2024-03-25T05:19:08;21.20;45.70
36690;DHT22;22676;51.120;3.702;2024-03-25T05:21:34;21.20;45.60
36690;DHT22;22676;51.120;3.702;2024-03-25T05:23:59;21.30;45.40
36690;DHT22;22676;51.120;3.702;2024-03-25T05:26:25;21.40;45.30
36690;DHT22;22676;51.120;3.702;2024-03-25T05:28:54;21.40;45.20
36690;DHT22;22676;51.120;3.702;2024-03-25T05:31:19;21.50;45.00
36690;DHT22;22676;51.120;3.702;2024-03-25T05:33:45;21.60;44.90
36690;DHT22;22676;51.120;3.702;2024-03-25T05:36:10;21.70;44.90
36690;DHT22;22676;51.120;3.702;2024-03-25T05:38:36;21.70;44.70
36690;DHT22;22676;51.120;3.702;2024-03-25T05:41:01;21.70;44.70
36690;DHT22;22676;51.120;3.702;2024-03-25T05:43:27;21.80;44.60
36690;DHT22;22676;51.120;3.702;2024-03-25T05:45:53;21.80;44.60
36690;DHT22;22676;51.120;3.702;2024-03-25T05:48:18;21.90;44.50
36690;DHT22;22676;51.120;3.702;2024-03-25T05:50:44;21.90;44.30
36690;DHT22;22676;51.120;3.702;2024-03-25T05:53:09;22.00;44.30
36690;DHT22;22676;51.120;3.702;2024-03-25T05:55:35;22.00;44.80
36690;DHT22;22676;51.120;3.702;2024-03-25T05:58:00;22.10;45.00
36690;DHT22;22676;51.120;3.702;2024-03-25T06:00:26;22.20;45.00
36690;DHT22;22676;51.120;3.702;2024-03-25T06:02:52;22.30;45.10
36690;DHT22;22676;51.120;3.702;2024-03-25T06:05:19;22.30;45.00
36690;DHT22;22676;51.120;3.702;2024-03-25T06:07:44;22.30;45.00
36690;DHT22;22676;51.120;3.702;2024-03-25T06:10:10;22.40;44.90
36690;DHT22;22676;51.120;3.702;2024-03-25T06:12:35;22.40;44.90
36690;DHT22;22676;51.120;3.702;2024-03-25T06:15:01;22.50;44.80
36690;DHT22;22676;51.120;3.702;2024-03-25T06:17:26;22.50;44.60
36690;DHT22;22676;51.120;3.702;2024-03-25T06:19:52;22.60;44.70
36690;DHT22;22676;51.120;3.702;2024-03-25T06:22:17;22.60;44.60
36690;DHT22;22676;51.120;3.702;2024-03-25T06:24:43;22.60;44.60
36690;DHT22;22676;51.120;3.702;2024-03-25T06:27:09;22.60;44.50
36690;DHT22;22676;51.120;3.702;2024-03-25T06:29:35;22.50;44.60
36690;DHT22;22676;51.120;3.702;2024-03-25T06:32:01;22.60;44.60
36690;DHT22;22676;51.120;3.702;2024-03-25T06:34:45;22.60;44.40
36690;DHT22;22676;51.120;3.702;2024-03-25T06:37:10;22.70;44.20
36690;DHT22;22676;51.120;3.702;2024-03-25T06:39:36;22.70;44.20
36690;DHT22;22676;51.120;3.702;2024-03-25T06:42:01;22.80;45.10
36690;DHT22;22676;51.120;3.702;2024-03-25T06:44:27;22.80;44.60
36690;DHT22;22676;51.120;3.702;2024-03-25T06:46:52;22.90;44.50
36690;DHT22;22676;51.120;3.702;2024-03-25T06:49:18;23.00;43.10
36690;DHT22;22676;51.120;3.702;2024-03-25T06:51:44;23.00;42.70
36690;DHT22;22676;51.120;3.702;2024-03-25T06:54:09;23.00;43.10
36690;DHT22;22676;51.120;3.702;2024-03-25T06:56:35;23.10;43.80
36690;DHT22;22676;51.120;3.702;2024-03-25T06:59:01;23.10;43.80
36690;DHT22;22676;51.120;3.702;2024-03-25T07:01:26;23.10;43.80
36690;DHT22;22676;51.120;3.702;2024-03-25T07:03:52;23.20;43.90
36690;DHT22;22676;51.120;3.702;2024-03-25T07:06:19;23.20;43.80
36690;DHT22;22676;51.120;3.702;2024-03-25T07:08:44;23.30;43.70
36690;DHT22;22676;51.120;3.702;2024-03-25T07:11:10;23.40;43.60
36690;DHT22;22676;51.120;3.702;2024-03-25T07:13:35;23.40;43.60
36690;DHT22;22676;51.120;3.702;2024-03-25T07:16:01;23.50;43.40
36690;DHT22;22676;51.120;3.702;2024-03-25T07:18:26;23.50;43.10
36690;DHT22;22676;51.120;3.702;2024-03-25T07:20:52;23.60;43.30
36690;DHT22;22676;51.120;3.702;2024-03-25T07:23:17;23.60;43.20
36690;DHT22;22676;51.120;3.702;2024-03-25T07:25:43;23.50;43.20
36690;DHT22;22676;51.120;3.702;2024-03-25T07:28:09;23.50;43.30
36690;DHT22;22676;51.120;3.702;2024-03-25T07:30:34;23.40;43.30
36690;DHT22;22676;51.120;3.702;2024-03-25T07:33:00;23.30;43.30
36690;DHT22;22676;51.120;3.702;2024-03-25T07:35:25;23.30;43.50
36690;DHT22;22676;51.120;3.702;2024-03-25T07:37:51;23.20;43.60
36690;DHT22;22676;51.120;3.702;2024-03-25T07:40:17;23.20;43.60
36690;DHT22;22676;51.120;3.702;2024-03-25T07:42:42;23.20;43.60
36690;DHT22;22676;51.120;3.702;2024-03-25T07:45:08;23.10;43.60
36690;DHT22;22676;51.120;3.702;2024-03-25T07:47:34;23.10;43.40
36690;DHT22;22676;51.120;3.702;2024-03-25T07:50:00;23.00;43.40
36690;DHT22;22676;51.120;3.702;2024-03-25T07:52:25;22.90;43.30
36690;DHT22;22676;51.120;3.702;2024-03-25T07:54:51;22.80;43.60
36690;DHT22;22676;51.120;3.702;2024-03-25T08:02:25;22.70;44.20
36690;DHT22;22676;51.120;3.702;2024-03-25T08:04:50;22.70;44.40
36690;DHT22;22676;51.120;3.702;2024-03-25T08:07:16;22.70;44.50
36690;DHT22;22676;51.120;3.702;2024-03-25T08:09:41;22.60;44.40
36690;DHT22;22676;51.120;3.702;2024-03-25T08:12:07;22.60;44.70
36690;DHT22;22676;51.120;3.702;2024-03-25T08:37:43;22.30;44.90
36690;DHT22;22676;51.120;3.702;2024-03-25T08:40:09;22.30;45.00
36690;DHT22;22676;51.120;3.702;2024-03-25T08:42:34;22.30;44.90
36690;DHT22;22676;51.120;3.702;2024-03-25T08:45:00;22.30;44.70
36690;DHT22;22676;51.120;3.702;2024-03-25T08:47:26;22.30;44.70
36690;DHT22;22676;51.120;3.702;2024-03-25T08:49:51;22.20;44.40
36690;DHT22;22676;51.120;3.702;2024-03-25T08:52:17;22.20;44.40
36690;DHT22;22676;51.120;3.702;2024-03-25T08:54:42;22.20;44.60
36690;DHT22;22676;51.120;3.702;2024-03-25T08:57:08;22.20;44.60
36690;DHT22;22676;51.120;3.702;2024-03-25T08:59:33;22.30;44.60
36690;DHT22;22676;51.120;3.702;2024-03-25T09:01:59;22.30;44.70
36690;DHT22;22676;51.120;3.702;2024-03-25T09:04:24;22.30;44.70
36690;DHT22;22676;51.120;3.702;2024-03-25T09:06:50;22.30;44.60
36690;DHT22;22676;51.120;3.702;2024-03-25T09:09:15;22.30;44.70
36690;DHT22;22676;51.120;3.702;2024-03-25T09:11:59;22.30;44.90
36690;DHT22;22676;51.120;3.702;2024-03-25T09:14:25;22.30;45.20
36690;DHT22;22676;51.120;3.702;2024-03-25T09:16:51;22.30;44.60
36690;DHT22;22676;51.120;3.702;2024-03-25T09:19:16;22.40;44.70
36690;DHT22;22676;51.120;3.702;2024-03-25T09:21:41;22.40;44.70
36690;DHT22;22676;51.120;3.702;2024-03-25T09:24:07;22.40;44.80
36690;DHT22;22676;51.120;3.702;2024-03-25T09:26:33;22.40;44.70
36690;DHT22;22676;51.120;3.702;2024-03-25T09:28:59;22.30;45.10
36690;DHT22;22676;51.120;3.702;2024-03-25T09:31:24;22.40;45.30
36690;DHT22;22676;51.120;3.702;2024-03-25T09:33:50;22.40;44.70
36690;DHT22;22676;51.120;3.702;2024-03-25T09:36:15;22.50;44.70
36690;DHT22;22676;51.120;3.702;2024-03-25T09:38:41;22.50;44.60
36690;DHT22;22676;51.120;3.702;2024-03-25T09:41:08;22.50;44.60
36690;DHT22;22676;51.120;3.702;2024-03-25T09:43:38;22.50;44.80
36690;DHT22;22676;51.120;3.702;2024-03-25T09:46:08;22.50;45.00
36690;DHT22;22676;51.120;3.702;2024-03-25T09:48:33;22.50;44.30
36690;DHT22;22676;51.120;3.702;2024-03-25T09:50:59;22.50;44.40
36690;DHT22;22676;51.120;3.702;2024-03-25T09:53:25;22.50;44.10
36690;DHT22;22676;51.120;3.702;2024-03-25T09:55:51;22.50;44.40
36690;DHT22;22676;51.120;3.702;2024-03-25T09:58:16;22.40;44.30
36690;DHT22;22676;51.120;3.702;2024-03-25T10:00:43;22.40;44.50
36690;DHT22;22676;51.120;3.702;2024-03-25T10:03:08;22.40;44.80
36690;DHT22;22676;51.120;3.702;2024-03-25T10:05:34;22.50;44.90
36690;DHT22;22676;51.120;3.702;2024-03-25T10:07:59;22.60;44.80
36690;DHT22;22676;51.120;3.702;2024-03-25T10:10:25;22.60;44.80
36690;DHT22;22676;51.120;3.702;2024-03-25T10:12:50;22.60;44.80
36690;DHT22;22676;51.120;3.702;2024-03-25T10:15:16;22.60;44.80
36690;DHT22;22676;51.120;3.702;2024-03-25T10:17:42;22.60;45.00
36690;DHT22;22676;51.120;3.702;2024-03-25T10:20:13;22.60;45.30
36690;DHT22;22676;51.120;3.702;2024-03-25T10:22:42;22.70;45.30
36690;DHT22;22676;51.120;3.702;2024-03-25T10:25:18;22.70;45.10
36690;DHT22;22676;51.120;3.702;2024-03-25T10:27:52;22.70;45.10
36690;DHT22;22676;51.120;3.702;2024-03-25T10:30:17;22.70;45.10
36690;DHT22;22676;51.120;3.702;2024-03-25T10:32:44;22.70;45.30
36690;DHT22;22676;51.120;3.702;2024-03-25T10:35:09;22.70;45.30
36690;DHT22;22676;51.120;3.702;2024-03-25T10:37:35;22.70;44.40
36690;DHT22;22676;51.120;3.702;2024-03-25T10:40:00;22.70;44.50
36690;DHT22;22676;51.120;3.702;2024-03-25T10:42:26;22.70;44.20
36690;DHT22;22676;51.120;3.702;2024-03-25T10:44:52;22.70;44.40
36690;DHT22;22676;51.120;3.702;2024-03-25T10:47:25;22.70;44.20
36690;DHT22;22676;51.120;3.702;2024-03-25T10:52:19;22.50;44.30
36690;DHT22;22676;51.120;3.702;2024-03-25T10:54:46;22.50;44.00
36690;DHT22;22676;51.120;3.702;2024-03-25T10:57:12;22.50;44.00
36690;DHT22;22676;51.120;3.702;2024-03-25T10:59:38;22.50;44.10
36690;DHT22;22676;51.120;3.702;2024-03-25T11:02:09;22.60;43.90
36690;DHT22;22676;51.120;3.702;2024-03-25T11:04:35;22.50;44.10
36690;DHT22;22676;51.120;3.702;2024-03-25T11:07:11;22.50;45.00
36690;DHT22;22676;51.120;3.702;2024-03-25T11:09:37;22.50;43.80
36690;DHT22;22676;51.120;3.702;2024-03-25T11:12:03;22.50;43.80
36690;DHT22;22676;51.120;3.702;2024-03-25T11:14:29;22.50;43.70
36690;DHT22;22676;51.120;3.702;2024-03-25T11:16:57;22.50;43.80
36690;DHT22;22676;51.120;3.702;2024-03-25T11:19:27;22.50;43.50
36690;DHT22;22676;51.120;3.702;2024-03-25T11:21:52;22.40;43.40
36690;DHT22;22676;51.120;3.702;2024-03-25T11:24:27;22.50;43.50
36690;DHT22;22676;51.120;3.702;2024-03-25T11:26:53;22.40;43.10
36690;DHT22;22676;51.120;3.702;2024-03-25T11:29:19;22.50;43.10
36690;DHT22;22676;51.120;3.702;2024-03-25T11:31:45;22.50;43.30
36690;DHT22;22676;51.120;3.702;2024-03-25T11:34:10;22.40;43.10
36690;DHT22;22676;51.120;3.702;2024-03-25T11:36:36;22.40;43.10
36690;DHT22;22676;51.120;3.702;2024-03-25T11:39:01;22.40;43.10
36690;DHT22;22676;51.120;3.702;2024-03-25T11:41:35;22.40;43.30
36690;DHT22;22676;51.120;3.702;2024-03-25T11:44:04;22.40;43.50
36690;DHT22;22676;51.120;3.702;2024-03-25T11:46:29;22.40;43.10
36690;DHT22;22676;51.120;3.702;2024-03-25T11:48:55;22.50;43.20
36690;DHT22;22676;51.120;3.702;2024-03-25T11:51:21;22.50;42.90
36690;DHT22;22676;51.120;3.702;2024-03-25T11:53:46;22.50;42.70
36690;DHT22;22676;51.120;3.702;2024-03-25T11:56:12;22.50;42.80
36690;DHT22;22676;51.120;3.702;2024-03-25T11:58:38;22.50;42.90
36690;DHT22;22676;51.120;3.702;2024-03-25T12:01:04;22.50;42.60
36690;DHT22;22676;51.120;3.702;2024-03-25T12:03:30;22.50;42.50
36690;DHT22;22676;51.120;3.702;2024-03-25T12:05:56;22.50;42.40
36690;DHT22;22676;51.120;3.702;2024-03-25T12:08:21;22.40;42.20
36690;DHT22;22676;51.120;3.702;2024-03-25T12:10:51;22.40;42.10
36690;DHT22;22676;51.120;3.702;2024-03-25T12:13:35;22.40;42.10
36690;DHT22;22676;51.120;3.702;2024-03-25T12:16:01;22.40;42.20
36690;DHT22;22676;51.120;3.702;2024-03-25T12:18:27;22.50;42.30
36690;DHT22;22676;51.120;3.702;2024-03-25T12:20:56;22.50;42.10
36690;DHT22;22676;51.120;3.702;2024-03-25T12:23:22;22.50;41.30
36690;DHT22;22676;51.120;3.702;2024-03-25T12:25:48;22.50;41.30
36690;DHT22;22676;51.120;3.702;2024-03-25T12:28:13;22.50;41.10
36690;DHT22;22676;51.120;3.702;2024-03-25T12:30:51;22.50;41.50
36690;DHT22;22676;51.120;3.702;2024-03-25T12:33:17;22.50;41.50
36690;DHT22;22676;51.120;3.702;2024-03-25T12:35:46;22.50;41.80
36690;DHT22;22676;51.120;3.702;2024-03-25T12:38:28;22.50;41.70
36690;DHT22;22676;51.120;3.702;2024-03-25T12:40:54;22.40;41.50
36690;DHT22;22676;51.120;3.702;2024-03-25T12:43:19;22.40;41.40
36690;DHT22;22676;51.120;3.702;2024-03-25T12:45:45;22.40;41.50
36690;DHT22;22676;51.120;3.702;2024-03-25T12:48:11;22.40;41.50
36690;DHT22;22676;51.120;3.702;2024-03-25T12:50:36;22.40;41.60
36690;DHT22;22676;51.120;3.702;2024-03-25T12:53:02;22.50;42.20
36690;DHT22;22676;51.120;3.702;2024-03-25T12:55:31;22.50;41.60
36690;DHT22;22676;51.120;3.702;2024-03-25T12:57:57;22.40;41.40
36690;DHT22;22676;51.120;3.702;2024-03-25T13:00:23;22.50;42.00
36690;DHT22;22676;51.120;3.702;2024-03-25T13:02:48;22.50;41.50
36690;DHT22;22676;51.120;3.702;2024-03-25T13:05:14;22.50;41.50
36690;DHT22;22676;51.120;3.702;2024-03-25T13:07:40;22.40;41.50
36690;DHT22;22676;51.120;3.702;2024-03-25T13:10:05;22.40;41.70
36690;DHT22;22676;51.120;3.702;2024-03-25T13:12:31;22.40;41.70
36690;DHT22;22676;51.120;3.702;2024-03-25T13:14:56;22.40;41.20
36690;DHT22;22676;51.120;3.702;2024-03-25T13:17:24;22.40;41.30
36690;DHT22;22676;51.120;3.702;2024-03-25T13:19:50;22.50;41.30
36690;DHT22;22676;51.120;3.702;2024-03-25T13:22:15;22.50;41.30
36690;DHT22;22676;51.120;3.702;2024-03-25T13:24:41;22.50;41.30
36690;DHT22;22676;51.120;3.702;2024-03-25T13:27:06;22.40;41.20
36690;DHT22;22676;51.120;3.702;2024-03-25T13:29:32;22.40;41.20
36690;DHT22;22676;51.120;3.702;2024-03-25T13:31:57;22.40;41.10
36690;DHT22;22676;51.120;3.702;2024-03-25T13:34:23;22.40;41.50
36690;DHT22;22676;51.120;3.702;2024-03-25T13:36:49;22.40;41.30
36690;DHT22;22676;51.120;3.702;2024-03-25T13:39:14;22.40;41.10
36690;DHT22;22676;51.120;3.702;2024-03-25T13:41:40;22.40;41.00
36690;DHT22;22676;51.120;3.702;2024-03-25T13:44:05;22.40;41.00
36690;DHT22;22676;51.120;3.702;2024-03-25T13:46:31;22.40;40.90
36690;DHT22;22676;51.120;3.702;2024-03-25T13:48:56;22.40;40.90
36690;DHT22;22676;51.120;3.702;2024-03-25T13:51:22;22.40;41.00
36690;DHT22;22676;51.120;3.702;2024-03-25T13:53:47;22.40;41.10
36690;DHT22;22676;51.120;3.702;2024-03-25T13:56:13;22.40;41.00
36690;DHT22;22676;51.120;3.702;2024-03-25T13:58:39;22.30;40.90
36690;DHT22;22676;51.120;3.702;2024-03-25T14:01:04;22.30;40.80
36690;DHT22;22676;51.120;3.702;2024-03-25T14:03:31;22.30;41.00
36690;DHT22;22676;51.120;3.702;2024-03-25T14:05:56;22.30;40.80
36690;DHT22;22676;51.120;3.702;2024-03-25T14:08:22;22.40;40.80
36690;DHT22;22676;51.120;3.702;2024-03-25T14:10:56;22.30;40.60
36690;DHT22;22676;51.120;3.702;2024-03-25T14:13:21;22.30;40.70
36690;DHT22;22676;51.120;3.702;2024-03-25T14:15:48;22.30;40.80
36690;DHT22;22676;51.120;3.702;2024-03-25T14:18:14;22.30;40.90
36690;DHT22;22676;51.120;3.702;2024-03-25T14:20:39;22.30;40.70
36690;DHT22;22676;51.120;3.702;2024-03-25T14:23:05;22.30;40.30
36690;DHT22;22676;51.120;3.702;2024-03-25T14:25:31;22.30;40.20
36690;DHT22;22676;51.120;3.702;2024-03-25T14:27:56;22.30;40.30
36690;DHT22;22676;51.120;3.702;2024-03-25T14:30:22;22.30;40.70
36690;DHT22;22676;51.120;3.702;2024-03-25T14:32:48;22.30;40.90
36690;DHT22;22676;51.120;3.702;2024-03-25T14:35:14;22.30;40.70
36690;DHT22;22676;51.120;3.702;2024-03-25T14:37:39;22.30;40.40
36690;DHT22;22676;51.120;3.702;2024-03-25T14:40:05;22.30;40.70
36690;DHT22;22676;51.120;3.702;2024-03-25T14:42:31;22.30;40.50
36690;DHT22;22676;51.120;3.702;2024-03-25T14:44:58;22.30;40.50
36690;DHT22;22676;51.120;3.702;2024-03-25T14:47:23;22.30;40.70
36690;DHT22;22676;51.120;3.702;2024-03-25T14:49:49;22.30;40.50
36690;DHT22;22676;51.120;3.702;2024-03-25T14:52:14;22.30;40.30
36690;DHT22;22676;51.120;3.702;2024-03-25T14:54:40;22.30;40.70
36690;DHT22;22676;51.120;3.702;2024-03-25T14:57:06;22.30;40.50
36690;DHT22;22676;51.120;3.702;2024-03-25T14:59:31;22.30;40.60
36690;DHT22;22676;51.120;3.702;2024-03-25T15:01:59;22.30;40.50
36690;DHT22;22676;51.120;3.702;2024-03-25T15:04:25;22.20;40.60
36690;DHT22;22676;51.120;3.702;2024-03-25T15:06:50;22.20;40.50
36690;DHT22;22676;51.120;3.702;2024-03-25T15:09:16;22.20;40.50
36690;DHT22;22676;51.120;3.702;2024-03-25T15:11:41;22.20;40.60
36690;DHT22;22676;51.120;3.702;2024-03-25T15:14:07;22.20;40.70
36690;DHT22;22676;51.120;3.702;2024-03-25T15:16:32;22.20;40.60
36690;DHT22;22676;51.120;3.702;2024-03-25T15:18:57;22.20;40.70
36690;DHT22;22676;51.120;3.702;2024-03-25T15:21:23;22.20;40.80
36690;DHT22;22676;51.120;3.702;2024-03-25T15:23:48;22.20;40.40
36690;DHT22;22676;51.120;3.702;2024-03-25T15:26:15;22.20;40.40
36690;DHT22;22676;51.120;3.702;2024-03-25T15:28:40;22.20;40.40
36690;DHT22;22676;51.120;3.702;2024-03-25T15:31:06;22.20;40.00
36690;DHT22;22676;51.120;3.702;2024-03-25T15:33:31;22.20;40.30
36690;DHT22;22676;51.120;3.702;2024-03-25T15:35:58;22.20;40.40
36690;DHT22;22676;51.120;3.702;2024-03-25T15:38:24;22.20;40.50
36690;DHT22;22676;51.120;3.702;2024-03-25T15:40:49;22.10;40.40
36690;DHT22;22676;51.120;3.702;2024-03-25T15:43:17;22.10;40.30
36690;DHT22;22676;51.120;3.702;2024-03-25T15:45:53;22.20;40.70
36690;DHT22;22676;51.120;3.702;2024-03-25T15:48:19;22.20;40.00
36690;DHT22;22676;51.120;3.702;2024-03-25T15:50:44;22.20;40.40
36690;DHT22;22676;51.120;3.702;2024-03-25T15:53:09;22.10;40.20